Metaline Falls, Washington
Current Conditions -  °F | °C
As of 7:00 AM on Saturday 20 Dec 2014 (Local Time) from CYCG Reporting Station
Light Rain Light Rain  
Wind Chill: 36°   Ceiling: 400
Heat Index: 36°   Visibility: 1mi
Dew Point: 36°   Wind: 0mph
Humidity: 100%   Direction: NA
Pressure: 29.89"   Gusts: NA
Location:  48.86°N, 117.37°W
Report Text: CYCG 201500Z 00000KT 1SM -RA BR BKN004 OVC019 02/02 A2989 RMK ST6SC2 SLP139
Loading
Personal Weather Stations






























Interactive Weather Map New forecast layout! Learn more

10-Day Weather Forecast

Advertisements
Track Severe Weather on mobile